Weather at Narayen

Public forecast

Using degrees Celsius for public forecast. Weather courtesy of forecast.io.

Closest aviation weather report (METAR) to Narayen

Closest report is Kingaroy Airport, 75.6 nm (140.1 km) SE. Retrieved 2020/10/23 01:00 UTC (58 minutes ago):

YKRY 230100Z AUTO 02008KT 9999 // BKN019 BKN025 OVC031 21/16 Q1016

Closest aviation forecast (TAF) to Narayen

Closest forecast is Gladstone Airport, 110.6 nm (204.8 km) N. Retrieved 2020-10-23 00:00 UTC (2 hours ago):

TAF YGLA 222313Z 2300/2312 05013KT 9999 SCT030 FM230900 05009KT 9999 SCT020